createdAt,value
2023-03-25T00:00:09.692Z,14.25
2023-03-25T00:02:41.234Z,14.21
2023-03-25T00:05:18.393Z,14.15
2023-03-25T00:07:53.069Z,14.06
2023-03-25T00:10:25.336Z,14.21
2023-03-25T00:12:55.222Z,14.15
2023-03-25T00:15:26.582Z,14.21
2023-03-25T00:18:07.242Z,14.24
2023-03-25T00:20:40.935Z,14.03
2023-03-25T00:23:18.752Z,14.39
2023-03-25T00:25:56.024Z,14.25
2023-03-25T00:28:28.845Z,14.15
2023-03-25T00:31:00.778Z,14.26
2023-03-25T00:33:32.206Z,14.13
2023-03-25T00:36:13.996Z,14.28
2023-03-25T00:38:50.859Z,14.29
2023-03-25T00:41:42.024Z,14.08
2023-03-25T00:44:12.391Z,14.05
2023-03-25T00:46:42.007Z,14.11
2023-03-25T00:49:15.638Z,14.25
2023-03-25T00:51:52.719Z,14.15
2023-03-25T00:54:25.191Z,14.12
2023-03-25T00:56:56.505Z,14.11
2023-03-25T00:59:27.698Z,14.32
2023-03-25T01:01:59.794Z,14.30
2023-03-25T01:04:33.599Z,14.04
2023-03-25T01:07:06.966Z,14.12
2023-03-25T01:09:38.138Z,14.18
2023-03-25T01:12:16.648Z,14.20
2023-03-25T01:14:46.845Z,14.15
2023-03-25T01:17:19.344Z,14.08
2023-03-25T01:19:47.625Z,14.20
2023-03-25T01:22:19.978Z,14.08
2023-03-25T01:24:58.242Z,14.20
2023-03-25T01:27:42.147Z,13.91
2023-03-25T01:30:28.475Z,13.92
2023-03-25T01:33:00.387Z,14.06
2023-03-25T01:35:34.251Z,13.73
2023-03-25T01:38:07.010Z,13.89
2023-03-25T01:40:44.805Z,14.03
2023-03-25T01:43:20.707Z,13.90
2023-03-25T01:45:52.312Z,13.82
2023-03-25T01:48:27.411Z,13.88
2023-03-25T01:51:03.227Z,13.88
2023-03-25T01:53:33.462Z,13.71
2023-03-25T01:56:07.647Z,13.65
2023-03-25T01:58:48.256Z,13.61
2023-03-25T02:01:28.376Z,13.60
2023-03-25T02:04:14.445Z,13.55
2023-03-25T02:06:54.127Z,13.39
2023-03-25T02:09:26.139Z,13.48
2023-03-25T02:11:58.644Z,13.60
2023-03-25T02:14:35.967Z,13.54
2023-03-25T02:17:13.361Z,13.52
2023-03-25T02:20:26.178Z,13.62
2023-03-25T02:23:10.453Z,13.61
2023-03-25T02:26:18.621Z,13.66
2023-03-25T02:28:59.788Z,13.51
2023-03-25T02:31:51.967Z,13.46
2023-03-25T02:34:51.301Z,13.63
2023-03-25T02:37:51.379Z,13.61
2023-03-25T02:40:36.079Z,13.42
2023-03-25T02:43:09.583Z,13.33
2023-03-25T02:45:47.096Z,13.58
2023-03-25T02:48:24.836Z,13.43
2023-03-25T02:50:57.917Z,13.35
2023-03-25T02:53:36.291Z,13.38
2023-03-25T02:56:12.091Z,13.40
2023-03-25T02:58:52.478Z,13.45
2023-03-25T03:01:23.966Z,13.46
2023-03-25T03:03:57.818Z,13.30
2023-03-25T03:06:29.564Z,13.40
2023-03-25T03:09:23.621Z,13.40
2023-03-25T03:12:02.752Z,13.34
2023-03-25T03:14:46.230Z,13.21
2023-03-25T03:17:22.363Z,13.38
2023-03-25T03:19:59.893Z,13.20
2023-03-25T03:22:40.227Z,13.34
2023-03-25T03:25:22.272Z,13.18
2023-03-25T03:28:00.789Z,13.22
2023-03-25T03:30:41.096Z,13.31
2023-03-25T03:33:25.707Z,13.33
2023-03-25T03:36:00.869Z,13.11
2023-03-25T03:38:36.741Z,13.11
2023-03-25T03:41:12.823Z,13.14
2023-03-25T03:43:51.484Z,13.18
2023-03-25T03:46:24.282Z,13.32
2023-03-25T03:48:58.682Z,13.26
2023-03-25T03:51:34.380Z,13.11
2023-03-25T03:54:07.160Z,13.21
2023-03-25T03:56:42.357Z,13.20
2023-03-25T03:59:18.749Z,13.10
2023-03-25T04:01:53.610Z,13.12
2023-03-25T04:04:27.265Z,13.14
2023-03-25T04:06:59.427Z,13.00
2023-03-25T04:09:36.293Z,13.05
2023-03-25T04:12:12.128Z,13.01
2023-03-25T04:14:46.564Z,13.08
2023-03-25T04:17:24.342Z,12.94
2023-03-25T04:19:54.787Z,13.10
2023-03-25T04:22:34.870Z,13.16
2023-03-25T04:25:06.447Z,12.97
2023-03-25T04:27:52.406Z,12.95
2023-03-25T04:30:31.241Z,12.84
2023-03-25T04:33:00.814Z,12.81
2023-03-25T04:35:33.192Z,12.80
2023-03-25T04:38:06.688Z,12.74
2023-03-25T04:40:40.888Z,12.85
2023-03-25T04:43:19.946Z,12.87
2023-03-25T04:45:56.386Z,12.96
2023-03-25T04:48:30.241Z,12.86
2023-03-25T04:51:03.931Z,12.99
2023-03-25T04:53:41.231Z,12.83
2023-03-25T04:56:18.362Z,12.84
2023-03-25T04:58:50.072Z,12.84
2023-03-25T05:01:33.093Z,12.84
2023-03-25T05:04:06.208Z,12.77
2023-03-25T05:06:35.744Z,12.74
2023-03-25T05:09:07.017Z,12.54
2023-03-25T05:11:42.098Z,12.76
2023-03-25T05:14:18.510Z,12.81
2023-03-25T05:16:49.481Z,12.74
2023-03-25T05:19:20.925Z,12.65
2023-03-25T05:21:51.433Z,12.60
2023-03-25T05:24:27.808Z,12.75
2023-03-25T05:26:56.506Z,12.64
2023-03-25T05:29:28.570Z,12.60
2023-03-25T05:31:57.237Z,12.52
2023-03-25T05:34:30.016Z,12.67
2023-03-25T05:36:58.929Z,12.63
2023-03-25T05:39:28.349Z,12.63
2023-03-25T05:42:05.125Z,12.71
2023-03-25T05:44:54.416Z,12.76
2023-03-25T05:47:28.967Z,12.84
2023-03-25T05:50:02.163Z,12.92
2023-03-25T05:52:33.553Z,12.65
2023-03-25T05:55:16.699Z,12.80
2023-03-25T05:57:46.110Z,12.76
2023-03-25T06:00:23.814Z,12.90
2023-03-25T06:02:55.724Z,12.75
2023-03-25T06:05:26.565Z,12.70
2023-03-25T06:07:58.380Z,12.89
2023-03-25T06:10:27.917Z,12.95
2023-03-25T06:13:10.810Z,12.86
2023-03-25T06:15:46.038Z,12.76
2023-03-25T06:18:15.228Z,12.70
2023-03-25T06:20:54.151Z,12.96
2023-03-25T06:23:26.969Z,12.87
2023-03-25T06:25:58.713Z,12.73
2023-03-25T06:28:29.539Z,12.82
2023-03-25T06:31:10.269Z,12.82
2023-03-25T06:33:42.179Z,12.74
2023-03-25T06:36:20.420Z,12.75
2023-03-25T06:38:54.589Z,12.75
2023-03-25T06:41:33.653Z,12.95
2023-03-25T06:44:15.703Z,12.93
2023-03-25T06:47:13.737Z,12.84
2023-03-25T06:49:54.771Z,12.98
2023-03-25T06:52:25.876Z,12.97
2023-03-25T06:54:55.590Z,12.92
2023-03-25T06:57:31.228Z,12.92
2023-03-25T07:00:12.117Z,12.95
2023-03-25T07:02:50.515Z,13.08
2023-03-25T07:05:31.166Z,12.68
2023-03-25T07:08:14.797Z,12.93
2023-03-25T07:10:46.568Z,13.08
2023-03-25T07:13:14.940Z,13.00
2023-03-25T07:15:44.719Z,13.00
2023-03-25T07:18:20.009Z,13.08
2023-03-25T07:20:49.524Z,12.93
2023-03-25T07:23:21.014Z,12.93
2023-03-25T07:25:50.445Z,12.94
2023-03-25T07:28:20.971Z,13.03
2023-03-25T07:30:50.903Z,12.93
2023-03-25T07:33:23.668Z,13.03
2023-03-25T07:35:53.904Z,13.08
2023-03-25T07:38:22.985Z,13.07
2023-03-25T07:40:59.701Z,13.18
2023-03-25T07:43:40.948Z,13.24
2023-03-25T07:46:33.408Z,13.30
2023-03-25T07:49:19.733Z,13.14
2023-03-25T07:51:56.868Z,13.13
2023-03-25T07:54:33.995Z,13.20
2023-03-25T07:57:03.427Z,13.29
2023-03-25T07:59:33.091Z,13.29
2023-03-25T08:02:03.939Z,13.42
2023-03-25T08:04:34.720Z,13.46
2023-03-25T08:07:10.859Z,13.37
2023-03-25T08:09:42.638Z,13.34
2023-03-25T08:12:11.170Z,13.29
2023-03-25T08:14:40.853Z,13.36
2023-03-25T08:17:10.030Z,13.21
2023-03-25T08:19:49.975Z,13.28
2023-03-25T08:22:20.524Z,13.40
2023-03-25T08:24:58.163Z,13.44
2023-03-25T08:27:30.023Z,13.46
2023-03-25T08:30:10.427Z,13.43
2023-03-25T08:32:48.356Z,13.46
2023-03-25T08:35:23.816Z,13.49
2023-03-25T08:37:55.529Z,13.49
2023-03-25T08:40:24.360Z,13.51
2023-03-25T08:42:55.466Z,13.46
2023-03-25T08:45:26.135Z,13.33
2023-03-25T08:47:55.396Z,13.43
2023-03-25T08:50:39.171Z,13.50
2023-03-25T08:53:19.495Z,13.53
2023-03-25T08:55:53.220Z,13.54
2023-03-25T08:58:24.619Z,13.65
2023-03-25T09:00:58.332Z,13.66
2023-03-25T09:03:37.780Z,13.30
2023-03-25T09:06:21.314Z,13.65
2023-03-25T09:08:50.573Z,13.51
2023-03-25T09:11:34.092Z,13.40
2023-03-25T09:14:05.769Z,13.41
2023-03-25T09:16:43.109Z,13.54
2023-03-25T09:19:14.276Z,13.44
2023-03-25T09:21:55.976Z,13.51
2023-03-25T09:24:33.555Z,13.74
2023-03-25T09:27:04.836Z,13.75
2023-03-25T09:29:32.966Z,13.67
2023-03-25T09:32:05.794Z,13.62
2023-03-25T09:34:34.625Z,13.69
2023-03-25T09:37:09.670Z,13.76
2023-03-25T09:39:38.103Z,13.71
2023-03-25T09:42:28.291Z,13.74
2023-03-25T09:45:09.928Z,13.80
2023-03-25T09:47:48.168Z,13.91
2023-03-25T09:50:20.458Z,13.93
2023-03-25T09:52:58.218Z,13.75
2023-03-25T09:55:35.726Z,13.60
2023-03-25T09:58:26.417Z,13.72
2023-03-25T10:00:58.982Z,14.00
2023-03-25T10:03:34.565Z,13.88
2023-03-25T10:06:22.153Z,13.96
2023-03-25T10:09:13.180Z,14.24
2023-03-25T10:11:48.963Z,14.01
2023-03-25T10:14:21.671Z,14.26
2023-03-25T10:16:59.654Z,14.28
2023-03-25T10:19:41.893Z,14.42
2023-03-25T10:22:18.822Z,14.44
2023-03-25T10:24:54.944Z,14.31
2023-03-25T10:27:33.695Z,14.29
2023-03-25T10:30:18.583Z,13.93
2023-03-25T10:32:51.484Z,14.30
2023-03-25T10:35:23.553Z,14.23
2023-03-25T10:37:57.949Z,14.27
2023-03-25T10:40:31.438Z,14.41
2023-03-25T10:43:20.561Z,14.43
2023-03-25T10:45:52.395Z,14.47
2023-03-25T10:48:33.735Z,14.25
2023-03-25T10:51:07.752Z,14.01
2023-03-25T10:53:42.246Z,14.02
2023-03-25T10:56:29.707Z,14.10
2023-03-25T10:59:01.912Z,14.11
2023-03-25T11:01:40.374Z,13.99
2023-03-25T11:04:23.073Z,14.01
2023-03-25T11:07:05.974Z,13.68
2023-03-25T11:09:36.866Z,13.94
2023-03-25T11:12:30.201Z,13.99
2023-03-25T11:15:03.817Z,14.13
2023-03-25T11:17:32.394Z,14.21
2023-03-25T11:20:06.750Z,14.19
2023-03-25T11:22:38.246Z,14.42
2023-03-25T11:25:23.333Z,14.50
2023-03-25T11:28:00.201Z,14.07
2023-03-25T11:30:29.479Z,14.32
2023-03-25T11:33:05.115Z,14.39
2023-03-25T11:35:35.578Z,14.46
2023-03-25T11:38:18.128Z,14.63
2023-03-25T11:40:54.384Z,14.54
2023-03-25T11:43:38.444Z,14.74
2023-03-25T11:46:13.820Z,14.81
2023-03-25T11:48:48.786Z,14.98
2023-03-25T11:51:21.199Z,15.01
2023-03-25T11:53:58.134Z,14.94
2023-03-25T11:56:34.464Z,15.00
2023-03-25T11:59:09.780Z,14.99
2023-03-25T12:01:42.337Z,14.94
2023-03-25T12:04:20.692Z,14.85
2023-03-25T12:06:58.784Z,15.02
2023-03-25T12:09:38.455Z,14.88
2023-03-25T12:12:36.972Z,14.87
2023-03-25T12:15:25.504Z,14.87
2023-03-25T12:18:06.211Z,14.71
2023-03-25T12:20:57.289Z,14.73
2023-03-25T12:23:38.173Z,15.09
2023-03-25T12:26:11.959Z,15.07
2023-03-25T12:29:27.131Z,15.28
2023-03-25T12:32:07.986Z,15.58
2023-03-25T12:34:48.411Z,15.34
2023-03-25T12:37:27.483Z,14.83
2023-03-25T12:40:12.700Z,14.78
2023-03-25T12:42:48.426Z,14.74
2023-03-25T12:45:25.967Z,15.01
2023-03-25T12:48:15.124Z,14.89
2023-03-25T12:50:50.721Z,15.15
2023-03-25T12:53:43.769Z,15.35
2023-03-25T12:56:21.012Z,15.51
2023-03-25T12:59:37.696Z,15.92
2023-03-25T13:02:19.810Z,16.79
2023-03-25T13:05:02.302Z,16.71
2023-03-25T13:07:34.665Z,16.54
2023-03-25T13:10:10.095Z,16.24
2023-03-25T13:12:43.206Z,15.90
2023-03-25T13:15:26.346Z,16.38
2023-03-25T13:17:59.470Z,16.32
2023-03-25T13:20:32.548Z,16.25
2023-03-25T13:23:05.871Z,16.01
2023-03-25T13:25:43.635Z,16.03
2023-03-25T13:28:18.737Z,15.95
2023-03-25T13:30:51.966Z,16.00
2023-03-25T13:33:31.875Z,16.03
2023-03-25T13:36:12.728Z,15.90
2023-03-25T13:38:44.563Z,16.21
2023-03-25T13:41:21.171Z,16.36
2023-03-25T13:44:01.813Z,16.29
2023-03-25T13:46:33.928Z,15.95
2023-03-25T13:49:05.809Z,15.82
2023-03-25T13:51:36.785Z,15.87
2023-03-25T13:54:08.147Z,15.78
2023-03-25T13:57:00.491Z,15.68
2023-03-25T14:00:18.518Z,15.54
2023-03-25T14:03:32.568Z,15.79
2023-03-25T14:06:29.591Z,15.87
2023-03-25T14:09:33.136Z,16.09
2023-03-25T14:12:11.247Z,16.49
2023-03-25T14:14:46.282Z,16.68
2023-03-25T14:17:19.840Z,16.41
2023-03-25T14:19:55.552Z,16.33
2023-03-25T14:22:30.263Z,16.34
2023-03-25T14:25:01.096Z,16.19
2023-03-25T14:27:32.807Z,15.87
2023-03-25T14:30:09.609Z,15.90
2023-03-25T14:32:40.067Z,15.65
2023-03-25T14:35:47.209Z,15.96
2023-03-25T14:39:02.364Z,16.07
2023-03-25T14:42:12.644Z,16.14
2023-03-25T14:44:49.988Z,16.39
2023-03-25T14:47:38.379Z,16.15
2023-03-25T14:50:35.470Z,16.01
2023-03-25T14:53:07.896Z,16.27
2023-03-25T14:55:43.354Z,16.11
2023-03-25T14:58:21.142Z,15.90
2023-03-25T15:01:06.120Z,16.04
2023-03-25T15:03:37.522Z,16.00
2023-03-25T15:06:07.778Z,15.97
2023-03-25T15:08:39.556Z,15.73
2023-03-25T15:11:10.204Z,15.64
2023-03-25T15:13:41.873Z,15.81
2023-03-25T15:16:36.528Z,15.69
2023-03-25T15:19:15.644Z,15.77
2023-03-25T15:22:22.089Z,15.67
2023-03-25T15:25:21.256Z,15.55
2023-03-25T15:28:09.253Z,15.50
2023-03-25T15:31:00.761Z,15.80
2023-03-25T15:34:00.774Z,16.14
2023-03-25T15:36:43.512Z,16.34
2023-03-25T15:39:33.496Z,15.95
2023-03-25T15:42:33.307Z,15.99
2023-03-25T15:45:24.938Z,16.16
2023-03-25T15:48:06.040Z,16.00
2023-03-25T15:50:46.025Z,15.85
2023-03-25T15:53:42.489Z,15.55
2023-03-25T15:56:23.081Z,15.80
2023-03-25T15:58:59.565Z,16.08
2023-03-25T16:01:31.338Z,16.27
2023-03-25T16:04:03.412Z,16.44
2023-03-25T16:06:42.896Z,16.17
2023-03-25T16:09:20.428Z,15.88
2023-03-25T16:11:58.333Z,15.54
2023-03-25T16:14:31.131Z,15.58
2023-03-25T16:17:03.601Z,15.36
2023-03-25T16:19:39.197Z,15.31
2023-03-25T16:22:20.104Z,15.22
2023-03-25T16:24:56.618Z,15.20
2023-03-25T16:27:32.392Z,15.09
2023-03-25T16:30:03.437Z,14.85
2023-03-25T16:32:35.912Z,14.78
2023-03-25T16:35:06.817Z,14.67
2023-03-25T16:37:38.394Z,14.61
2023-03-25T16:40:17.085Z,14.50
2023-03-25T16:42:46.178Z,14.46
2023-03-25T16:45:26.676Z,14.28
2023-03-25T16:47:59.318Z,13.95
2023-03-25T16:50:29.249Z,13.85
2023-03-25T16:53:06.153Z,13.46
2023-03-25T16:55:49.898Z,13.37
2023-03-25T16:58:22.487Z,12.97
2023-03-25T17:00:53.351Z,13.17
2023-03-25T17:03:45.119Z,13.04
2023-03-25T17:06:23.637Z,12.86
2023-03-25T17:09:00.758Z,12.81
2023-03-25T17:11:31.847Z,12.56
2023-03-25T17:14:02.530Z,12.43
2023-03-25T17:16:33.531Z,12.02
2023-03-25T17:19:06.077Z,11.83
2023-03-25T17:21:39.035Z,11.82
2023-03-25T17:24:23.925Z,11.69
2023-03-25T17:27:22.759Z,11.73
2023-03-25T17:29:53.996Z,11.74
2023-03-25T17:32:25.607Z,11.63
2023-03-25T17:35:11.001Z,11.55
2023-03-25T17:37:51.397Z,11.56
2023-03-25T17:40:26.030Z,11.70
2023-03-25T17:43:02.636Z,11.49
2023-03-25T17:45:39.920Z,11.43
2023-03-25T17:48:25.840Z,11.50
2023-03-25T17:50:57.953Z,11.43
2023-03-25T17:53:32.207Z,11.71
2023-03-25T17:56:03.733Z,11.69
2023-03-25T17:58:33.608Z,11.28
2023-03-25T18:01:04.510Z,11.33
2023-03-25T18:03:35.263Z,11.19
2023-03-25T18:06:16.270Z,11.09
2023-03-25T18:08:53.146Z,10.95
2023-03-25T18:11:33.837Z,10.89
2023-03-25T18:14:06.932Z,11.14
2023-03-25T18:16:38.157Z,11.04
2023-03-25T18:19:15.467Z,10.93
2023-03-25T18:21:45.773Z,10.97
2023-03-25T18:24:15.750Z,10.97
2023-03-25T18:26:49.737Z,10.91
2023-03-25T18:29:23.917Z,11.05
2023-03-25T18:34:37.752Z,11.11
2023-03-25T18:37:11.140Z,11.08
2023-03-25T18:39:40.484Z,11.11
2023-03-25T18:42:22.212Z,11.25
2023-03-25T18:45:03.271Z,11.15
2023-03-25T18:47:36.525Z,11.01
2023-03-25T18:50:30.300Z,11.11
2023-03-25T18:53:11.324Z,11.14
2023-03-25T18:55:46.135Z,11.24
2023-03-25T18:58:38.252Z,11.13
2023-03-25T19:01:12.506Z,10.87
2023-03-25T19:03:54.406Z,11.02
2023-03-25T19:06:37.297Z,10.96
2023-03-25T19:09:32.917Z,11.11
2023-03-25T19:12:12.803Z,11.08
2023-03-25T19:14:57.021Z,11.11
2023-03-25T19:17:39.174Z,11.09
2023-03-25T19:20:15.422Z,10.79
2023-03-25T19:22:50.510Z,10.86
2023-03-25T19:25:23.672Z,10.83
2023-03-25T19:27:57.442Z,10.82
2023-03-25T19:30:36.334Z,10.89
2023-03-25T19:33:09.421Z,10.94
2023-03-25T19:35:50.225Z,10.65
2023-03-25T19:38:25.761Z,10.50
2023-03-25T19:41:08.579Z,10.36
2023-03-25T19:43:40.639Z,10.36
2023-03-25T19:46:29.787Z,10.44
2023-03-25T19:49:03.221Z,10.36
2023-03-25T19:51:35.423Z,10.26
2023-03-25T19:54:15.912Z,10.29
2023-03-25T19:56:46.634Z,10.19
2023-03-25T19:59:21.781Z,10.32
2023-03-25T20:02:09.312Z,10.31
2023-03-25T20:04:56.246Z,10.37
2023-03-25T20:07:43.605Z,10.61
2023-03-25T20:10:25.886Z,10.67
2023-03-25T20:12:59.983Z,10.77
2023-03-25T20:15:34.036Z,10.91
2023-03-25T20:18:11.753Z,11.09
2023-03-25T20:20:47.993Z,11.13
2023-03-25T20:23:23.806Z,11.16
2023-03-25T20:25:55.800Z,11.02
2023-03-25T20:28:35.345Z,10.72
2023-03-25T20:31:21.265Z,10.34
2023-03-25T20:33:57.775Z,10.54
2023-03-25T20:36:40.853Z,10.39
2023-03-25T20:39:13.312Z,10.41
2023-03-25T20:41:45.939Z,10.32
2023-03-25T20:44:18.657Z,10.49
2023-03-25T20:46:51.947Z,10.17
2023-03-25T20:49:45.777Z,10.16
2023-03-25T20:52:18.571Z,10.24
2023-03-25T20:54:53.911Z,10.00
2023-03-25T20:57:24.252Z,10.13
2023-03-25T21:00:07.902Z,9.92
2023-03-25T21:03:06.187Z,10.00
2023-03-25T21:05:49.584Z,10.16
2023-03-25T21:08:21.469Z,10.00
2023-03-25T21:10:59.890Z,9.85
2023-03-25T21:13:32.190Z,9.93
2023-03-25T21:16:04.667Z,9.91
2023-03-25T21:18:35.667Z,9.84
2023-03-25T21:21:09.045Z,9.98
2023-03-25T21:23:43.805Z,9.99
2023-03-25T21:26:25.134Z,9.88
2023-03-25T21:29:10.384Z,9.86
2023-03-25T21:31:43.866Z,9.96
2023-03-25T21:34:23.560Z,9.96
2023-03-25T21:37:15.326Z,9.91
2023-03-25T21:39:52.750Z,10.00
2023-03-25T21:42:33.378Z,10.10
2023-03-25T21:45:11.744Z,9.92
2023-03-25T21:47:44.867Z,9.98
2023-03-25T21:50:22.568Z,10.06
2023-03-25T21:53:13.428Z,9.89
2023-03-25T21:55:42.340Z,9.88
2023-03-25T21:58:13.077Z,9.98
2023-03-25T22:00:41.790Z,9.77
2023-03-25T22:03:12.386Z,9.90
2023-03-25T22:05:43.606Z,9.89
2023-03-25T22:08:14.198Z,9.85
2023-03-25T22:10:52.365Z,10.04
2023-03-25T22:13:24.908Z,9.96
2023-03-25T22:15:53.246Z,9.92
2023-03-25T22:18:22.580Z,9.92
2023-03-25T22:20:52.070Z,10.03
2023-03-25T22:23:22.769Z,9.96
2023-03-25T22:25:52.440Z,9.92
2023-03-25T22:28:26.590Z,10.14
2023-03-25T22:30:55.228Z,10.04
2023-03-25T22:33:24.159Z,10.08
2023-03-25T22:35:54.233Z,10.07
2023-03-25T22:38:35.749Z,9.95
2023-03-25T22:41:16.675Z,10.10
2023-03-25T22:43:52.897Z,10.08
2023-03-25T22:46:23.806Z,10.20
2023-03-25T22:49:00.839Z,10.19
2023-03-25T22:51:32.380Z,10.14
2023-03-25T22:54:16.359Z,10.15
2023-03-25T22:56:50.181Z,10.16
2023-03-25T22:59:24.117Z,10.28
2023-03-25T23:01:58.851Z,10.18
2023-03-25T23:04:27.404Z,10.05
2023-03-25T23:07:07.311Z,10.14
2023-03-25T23:09:42.277Z,10.12
2023-03-25T23:12:16.978Z,9.98
2023-03-25T23:14:51.089Z,10.03
2023-03-25T23:17:23.890Z,10.18
2023-03-25T23:19:58.795Z,10.09
2023-03-25T23:22:35.710Z,10.16
2023-03-25T23:25:23.701Z,10.11
2023-03-25T23:27:55.652Z,10.12
2023-03-25T23:30:25.224Z,10.25
2023-03-25T23:33:02.354Z,10.18
2023-03-25T23:35:31.267Z,10.34
2023-03-25T23:38:04.738Z,10.38
2023-03-25T23:40:35.813Z,10.37
2023-03-25T23:43:06.088Z,10.49
2023-03-25T23:45:34.216Z,10.48
2023-03-25T23:48:13.143Z,10.51
2023-03-25T23:50:45.418Z,10.48
2023-03-25T23:53:15.039Z,10.58
2023-03-25T23:56:00.600Z,10.59
2023-03-25T23:58:30.753Z,10.50
